CheckWX is a tool to help pilots better visualize weather data.  It is not intended as a substitute for an official pre-flight weather briefing.

09:24:50 UTC

EETU METAR
Tartu Airport
Tartu, Estonia
Current

35 mins ago

EETU 200850Z AUTO 25012KT 9999 OVC006/// 03/02 Q0993
Observed
Feb-20 @ 08:50 UTC
Wind
  • 250° at 12 KTS
Visibility
10,000+ meters
Flight Rules
IFR
Cloud Levels
  • Overcast at 600' AGL
Temperature
C / 37°F
Dewpoint
C / 36°F
Humidity
93%
Altimeter
29.32" Hg
Pressure
992.92 hPa
Previous

2 hours ago

EETU 200750Z AUTO 24012KT 9999 OVC007/// 02/02 Q0993 RESHUP REDZ
Observed
Feb-20 @ 07:50 UTC
Wind
  • 240° at 12 KTS
Visibility
10,000+ meters
Flight Rules
IFR
Cloud Levels
  • Overcast at 700' AGL
Temperature
C / 36°F
Dewpoint
C / 36°F
Humidity
100%
Altimeter
29.32" Hg
Pressure
992.92 hPa
Previous

5 hours ago

EETU 200450Z AUTO 24012KT 9999 DZ OVC008/// 03/02 Q0993 REUP
Observed
Feb-20 @ 04:50 UTC
Wind
  • 240° at 12 KTS
Visibility
10,000+ meters
Flight Rules
IFR
Conditions
Drizzle
Cloud Levels
  • Overcast at 800' AGL
Temperature
C / 37°F
Dewpoint
C / 36°F
Humidity
93%
Altimeter
29.32" Hg
Pressure
992.92 hPa